• Join FlightAware (Why Join?)
  • Login
  • US Flag 
12:27PM EDT


 

Airport Tracker/Info


-or-


 

Live Flight TrackerFlight Track Log ✈ SKW6345 ✈ 16-Aug-2013 ✈ KSFO - KBZN

Flight Track Log - Related Links

Times and Time Zones

All times are in EDT time to prevent confusion due to time zone crossing. See the SKW6345 flight status page for this flight to view local times or setup timezone preferences in your user account.

Time Position Orientation Groundspeed Altitude Reporting Facility
EDT Latitude Longitude Course Direction KTS MPH feet Rate Location/Type
11:24AM 37.6500 -122.3333 38° Northeast 174 200 1,700  Level Northern Cal TRACON
11:24AM 37.6833 -122.2833 50° Northeast 242 278 3,300 2,160 Climbing Northern Cal TRACON
11:25AM 37.7500 -122.2167 38° Northeast 278 320 5,900 2,220 Climbing Northern Cal TRACON
11:26AM 37.6259 -122.4036 120° Southeast  Level FlightAware Approximate
11:27AM 37.6981 -122.2853 38° Northeast  Level FlightAware Approximate
11:28AM 37.8043 -122.1790 38° Northeast  Level FlightAware Approximate
11:28AM 37.8989 -122.0819 36° Northeast 298 343 11,000  Level Oakland Center
11:29AM 37.9106 -122.0727 38° Northeast  Level FlightAware Approximate
11:29AM 37.9694 -122.0128 38° Northeast 315 362 12,500  Level Oakland Center
11:30AM 38.0464 -121.9403 37° Northeast 337 388 14,200 1,560 Climbing Oakland Center
11:31AM 38.1253 -121.8625 38° Northeast 355 409 15,800 1,380 Climbing Oakland Center
11:32AM 38.2058 -121.7850 37° Northeast 363 418 17,100 1,440 Climbing Oakland Center
11:33AM 38.3061 -121.6869 37° Northeast 378 435 18,800 1,320 Climbing Oakland Center
11:34AM 38.3914 -121.6036 37° Northeast 385 443 19,900 1,020 Climbing Oakland Center
11:35AM 38.4631 -121.5183 43° Northeast 397 457 20,900 960 Climbing Oakland Center
11:36AM 38.5389 -121.3894 53° Northeast 410 472 21,900 900 Climbing Oakland Center
11:37AM 38.6106 -121.2697 53° Northeast 422 486 22,800 960 Climbing Oakland Center
11:38AM 38.6792 -121.1483 54° Northeast 427 491 23,900 960 Climbing Oakland Center
11:39AM 38.7497 -121.0250 54° Northeast 428 493 24,800 780 Climbing Oakland Center
11:40AM 38.8217 -120.9000 54° Northeast 431 496 25,600 780 Climbing Oakland Center
11:41AM 38.9097 -120.7492 53° Northeast 436 502 26,500 780 Climbing Oakland Center
11:42AM 38.9833 -120.6214 53° Northeast 440 506 27,200 660 Climbing Oakland Center
11:43AM 39.0578 -120.4925 53° Northeast 445 512 27,900 600 Climbing Oakland Center
11:44AM 39.1317 -120.3597 54° Northeast 451 519 28,500 480 Climbing Oakland Center
11:45AM 39.2058 -120.2283 54° Northeast 453 521 29,000 540 Climbing Oakland Center
11:46AM 39.2950 -120.0792 52° Northeast 464 534 29,700 540 Climbing Oakland Center
11:47AM 39.3689 -119.9475 54° Northeast 456 525 30,200 480 Climbing Oakland Center
11:48AM 39.4456 -119.8122 54° Northeast 464 534 30,700 480 Climbing Oakland Center
11:49AM 39.5228 -119.6778 53° Northeast 477 549 31,200 480 Climbing Oakland Center
11:50AM 39.6336 -119.6000 28° Northeast 476 548 31,700 480 Climbing Oakland Center
11:51AM 39.7508 -119.5336 24° Northeast 460 529 32,200 480 Climbing Oakland Center
11:52AM 39.8714 -119.4658 23° Northeast 467 537 32,700 360 Climbing Oakland Center
11:53AM 39.9889 -119.3986 24° Northeast 460 529 33,000 120 Climbing Oakland Center
11:54AM 40.1072 -119.3325 23° Northeast 459 528 33,000  Level Oakland Center
11:56AM 40.2294 -119.2633 23° Northeast 472 543 33,000  Level Oakland Center
11:57AM 40.3794 -119.1786 23° Northeast 486 559 33,000  Level Oakland Center
11:58AM 40.5011 -119.1083 24° Northeast 478 550 33,000  Level Oakland Center
11:59AM 40.6236 -119.0367 24° Northeast 480 552 33,000  Level Oakland Center
12:00PM 40.7464 -118.9678 23° Northeast 479 551 33,000  Level Oakland Center
12:01PM 40.8719 -118.8950 24° Northeast 478 550 33,000  Level Oakland Center
12:02PM 40.9900 -118.8258 24° Northeast 481 554 33,000  Level Oakland Center
12:03PM 41.1269 -118.7464 24° Northeast 480 552 33,000  Level Oakland Center
12:04PM 41.2439 -118.6778 24° Northeast 479 551 33,000  Level Oakland Center
12:05PM 41.3606 -118.6097 24° Northeast 478 550 33,000  Level Oakland Center
12:06PM 41.4975 -118.5278 24° Northeast 480 552 33,000  Level Oakland Center
12:07PM 41.6564 -118.4350 24° Northeast 483 556 33,000  Level Salt Lake Center
12:08PM 41.7736 -118.3644 24° Northeast 482 555 33,000  Level Salt Lake Center
12:09PM 41.8908 -118.2947 24° Northeast 481 554 33,000  Level Salt Lake Center
12:10PM 42.0286 -118.2119 24° Northeast 482 555 33,000  Level Salt Lake Center
12:11PM 42.1458 -118.1406 24° Northeast 482 555 33,000  Level Salt Lake Center
12:12PM 42.2731 -118.0458 29° Northeast 492 566 33,000  Level Salt Lake Center
12:13PM 42.3750 -117.8939 48° Northeast 494 568 33,000  Level Salt Lake Center
12:14PM 42.4547 -117.7525 53° Northeast 494 568 33,000  Level Salt Lake Center
12:15PM 42.5481 -117.5897 52° Northeast 490 564 33,000  Level Salt Lake Center
12:16PM 42.6264 -117.4481 53° Northeast 489 563 33,000  Level Salt Lake Center
12:17PM 42.7053 -117.3044 53° Northeast 493 567 33,000  Level Salt Lake Center
12:18PM 42.7961 -117.1403 53° Northeast 485 558 33,000  Level Salt Lake Center
12:19PM 42.8747 -116.9981 53° Northeast 489 563 33,000  Level Salt Lake Center
12:20PM 42.9658 -116.8311 53° Northeast 491 565 33,000  Level Salt Lake Center
12:22PM 43.0436 -116.6903 53° Northeast 487 560 33,000  Level Salt Lake Center
12:23PM 43.1339 -116.5231 53° Northeast 490 564 33,000  Level Salt Lake Center
12:24PM 43.2108 -116.3806 53° Northeast 488 562 33,000  Level Salt Lake Center
12:25PM 43.2997 -116.2142 54° Northeast 486 559 33,000  Level Salt Lake Center
12:26PM 43.3753 -116.0706 54° Northeast 486 559 33,000  Level Salt Lake Center
12:27PM 43.4644 -115.9044 53° Northeast 485 558 33,000  Level Salt Lake Center
12:28PM 43.5392 -115.7619 54° Northeast 484 557 33,000  Level Salt Lake Center
12:29PM 43.6272 -115.5953 54° Northeast 484 557 33,000  Level Salt Lake Center
12:30PM 43.7014 -115.4522 54° Northeast 482 555 33,000  Level Salt Lake Center
12:31PM 43.7889 -115.2853 54° Northeast 482 555 33,000  Level Salt Lake Center
12:32PM 43.8628 -115.1414 55° Northeast 482 555 33,000  Level Salt Lake Center
12:33PM 43.9492 -114.9736 54° Northeast 480 552 33,000  Level Salt Lake Center
12:34PM 44.0222 -114.8289 55° Northeast 478 550 33,000  Level Salt Lake Center
12:35PM 44.1069 -114.6597 55° Northeast 478 550 33,000  Level Salt Lake Center
12:36PM 44.1811 -114.5156 54° Northeast 479 551 33,000  Level Salt Lake Center
12:37PM 44.2661 -114.3461 55° Northeast 479 551 33,000  Level Salt Lake Center
12:38PM 44.3386 -114.2006 55° Northeast 479 551 33,000  Level Salt Lake Center
12:39PM 44.4192 -114.0336 56° Northeast 470 541 33,000  Level Salt Lake Center
12:40PM 44.4892 -113.8911 55° Northeast 472 543 33,000  Level Salt Lake Center
12:41PM 44.5725 -113.7222 55° Northeast 470 541 33,000  Level Salt Lake Center
12:42PM 44.6453 -113.5764 55° Northeast 473 544 33,000  Level Salt Lake Center
12:43PM 44.7253 -113.4086 56° Northeast 467 537 33,000  Level Salt Lake Center
12:44PM 44.7950 -113.2631 56° Northeast 467 537 33,000  Level Salt Lake Center
12:45PM 44.8658 -113.1181 55° Northeast 468 539 33,000  Level Salt Lake Center
12:46PM 44.9475 -112.9486 56° Northeast 468 539 33,000 -1,260 Level Salt Lake Center
12:47PM 45.0169 -112.7992 57° Northeast 473 544 30,500 -2,640 Descending Salt Lake Center
12:48PM 45.0983 -112.6311 56° Northeast 465 535 27,600 -2,700 Descending Salt Lake Center
12:49PM 45.1633 -112.4917 56° Northeast 450 518 25,000 -2,520 Descending Salt Lake Center
12:50PM 45.2378 -112.3319 56° Northeast 437 503 22,400 -2,280 Descending Salt Lake Center
12:51PM 45.2997 -112.1972 57° Northeast 428 493 20,300 -2,100 Descending Salt Lake Center
12:53PM 45.3681 -112.0669 53° Northeast 423 487 18,100 -1,440 Descending Salt Lake Center
12:54PM 45.4414 -111.9561 47° Northeast 392 451 17,400 -1,020 Descending Salt Lake Center
12:55PM 45.5125 -111.8458 47° Northeast 320 368 16,000 -1,260 Descending Salt Lake Center
12:56PM 45.5675 -111.7606 47° Northeast 297 342 14,800 -1,260 Descending Salt Lake Center
12:57PM 45.6211 -111.6767 48° Northeast 289 333 13,400 -1,440 Descending Salt Lake Center
12:58PM 45.6747 -111.5947 47° Northeast 284 327 11,900 -1,260 Descending Salt Lake Center
12:59PM 45.7264 -111.5133 48° Northeast 280 322 10,900 -1,260 Descending Salt Lake Center
01:00PM 45.7728 -111.4417 47° Northeast 263 303 9,400 -1,500 Descending Salt Lake Center
01:01PM 45.8183 -111.3708 47° Northeast 249 287 7,900 -1,260 Descending Salt Lake Center
01:02PM 45.8631 -111.2986 48° Northeast 215 247 6,900 -1,020 Descending Salt Lake Center
01:03PM 45.8431 -111.2444 118° Southeast 179 206 5,800 -900 Descending Salt Lake Center
01:04PM 45.8122 -111.2008 135° Southeast 162 186 5,100 -720 Descending Salt Lake Center
01:05PM 45.7794 -111.1550 136° Southeast 159 183 4,400 -720 Descending Salt Lake Center